createdAt,value
2018-06-29T00:01:47.660Z,23.04
2018-06-29T00:04:13.651Z,23.02
2018-06-29T00:06:39.656Z,23.02
2018-06-29T00:09:05.651Z,23.02
2018-06-29T00:11:31.647Z,23.02
2018-06-29T00:13:57.643Z,23.03
2018-06-29T00:16:23.665Z,23.03
2018-06-29T00:18:49.637Z,23.02
2018-06-29T00:21:15.635Z,23.02
2018-06-29T00:23:41.628Z,23.02
2018-06-29T00:26:07.630Z,23.02
2018-06-29T00:28:33.621Z,23.02
2018-06-29T00:30:59.620Z,23.01
2018-06-29T00:33:25.684Z,23.01
2018-06-29T00:35:51.720Z,23.02
2018-06-29T00:38:17.721Z,23.01
2018-06-29T00:40:43.727Z,23.00
2018-06-29T00:43:09.723Z,23.00
2018-06-29T00:45:35.725Z,23.01
2018-06-29T00:48:01.722Z,23.01
2018-06-29T00:50:27.711Z,23.00
2018-06-29T00:52:53.714Z,23.01
2018-06-29T00:55:19.733Z,23.00
2018-06-29T00:57:45.725Z,22.99
2018-06-29T01:00:11.711Z,23.00
2018-06-29T01:02:37.711Z,23.00
2018-06-29T01:05:03.701Z,22.99
2018-06-29T01:07:29.701Z,22.98
2018-06-29T01:09:55.779Z,22.99
2018-06-29T01:12:21.777Z,22.99
2018-06-29T01:14:47.801Z,22.98
2018-06-29T01:17:13.841Z,22.99
2018-06-29T01:19:39.842Z,22.98
2018-06-29T01:22:05.839Z,22.99
2018-06-29T01:24:31.835Z,22.99
2018-06-29T01:26:57.833Z,22.98
2018-06-29T01:29:23.833Z,22.99
2018-06-29T01:31:49.834Z,23.00
2018-06-29T01:34:15.831Z,23.00
2018-06-29T01:36:41.831Z,22.99
2018-06-29T01:39:07.853Z,22.99
2018-06-29T01:41:33.826Z,22.98
2018-06-29T01:43:59.813Z,22.99
2018-06-29T01:46:25.870Z,22.99
2018-06-29T01:48:51.873Z,22.98
2018-06-29T01:51:17.874Z,22.98
2018-06-29T01:53:43.865Z,22.98
2018-06-29T01:56:09.858Z,22.98
2018-06-29T01:58:35.859Z,22.97
2018-06-29T02:01:01.853Z,22.98
2018-06-29T02:03:27.854Z,22.97
2018-06-29T02:05:53.859Z,22.97
2018-06-29T02:08:19.863Z,22.97
2018-06-29T02:10:45.857Z,22.96
2018-06-29T02:13:11.856Z,22.96
2018-06-29T02:15:37.859Z,22.96
2018-06-29T02:18:03.863Z,22.96
2018-06-29T02:20:29.852Z,22.96
2018-06-29T02:22:55.952Z,22.96
2018-06-29T02:25:21.988Z,22.96
2018-06-29T02:27:48.026Z,22.97
2018-06-29T02:30:14.035Z,22.97
2018-06-29T02:32:40.020Z,22.95
2018-06-29T02:35:06.026Z,22.96
2018-06-29T02:37:32.022Z,22.95
2018-06-29T02:39:58.013Z,22.95
2018-06-29T02:42:24.013Z,22.95
2018-06-29T02:44:50.008Z,22.95
2018-06-29T02:47:16.006Z,22.95
2018-06-29T02:49:41.997Z,22.95
2018-06-29T02:52:07.993Z,22.94
2018-06-29T02:54:33.992Z,22.94
2018-06-29T02:57:00.017Z,22.94
2018-06-29T02:59:26.046Z,22.94
2018-06-29T03:01:52.048Z,22.94
2018-06-29T03:04:18.044Z,22.93
2018-06-29T03:06:44.050Z,22.94
2018-06-29T03:09:10.050Z,22.93
2018-06-29T03:11:36.040Z,22.93
2018-06-29T03:14:02.035Z,22.93
2018-06-29T03:16:28.033Z,22.93
2018-06-29T03:18:54.024Z,22.92
2018-06-29T03:21:20.026Z,22.93
2018-06-29T03:23:46.017Z,22.92
2018-06-29T03:26:12.023Z,22.93
2018-06-29T03:28:38.005Z,22.92
2018-06-29T03:31:04.013Z,22.92
2018-06-29T03:33:30.018Z,22.92
2018-06-29T03:35:56.134Z,22.91
2018-06-29T03:38:22.234Z,22.92
2018-06-29T03:40:48.277Z,22.92
2018-06-29T03:43:14.275Z,22.92
2018-06-29T03:45:40.271Z,22.92
2018-06-29T03:48:06.264Z,22.91
2018-06-29T03:50:32.271Z,22.91
2018-06-29T03:52:58.271Z,22.91
2018-06-29T03:55:24.261Z,22.91
2018-06-29T03:57:50.262Z,22.90
2018-06-29T04:00:16.268Z,22.90
2018-06-29T04:02:42.265Z,22.90
2018-06-29T04:05:08.268Z,22.90
2018-06-29T04:07:34.340Z,22.90
2018-06-29T04:10:00.327Z,22.90
2018-06-29T04:12:26.326Z,22.89
2018-06-29T04:14:52.328Z,22.90
2018-06-29T04:17:18.323Z,22.90
2018-06-29T04:19:44.331Z,22.90
2018-06-29T04:22:10.325Z,22.90
2018-06-29T04:24:36.379Z,22.91
2018-06-29T04:27:02.371Z,22.90
2018-06-29T04:29:28.375Z,22.91
2018-06-29T04:31:54.376Z,22.93
2018-06-29T04:34:20.373Z,22.95
2018-06-29T04:36:46.381Z,22.97
2018-06-29T04:39:12.376Z,22.98
2018-06-29T04:41:38.384Z,22.98
2018-06-29T04:44:04.388Z,22.99
2018-06-29T04:46:30.383Z,22.98
2018-06-29T04:48:56.378Z,22.98
2018-06-29T04:51:22.383Z,22.99
2018-06-29T04:53:48.396Z,22.98
2018-06-29T04:56:14.399Z,22.97
2018-06-29T04:58:40.397Z,22.99
2018-06-29T05:01:06.406Z,23.00
2018-06-29T05:03:32.406Z,22.99
2018-06-29T05:05:58.515Z,22.98
2018-06-29T05:08:24.503Z,22.98
2018-06-29T05:10:50.480Z,22.97
2018-06-29T05:13:16.471Z,22.98
2018-06-29T05:15:42.457Z,22.97
2018-06-29T05:18:08.471Z,22.97
2018-06-29T05:20:34.430Z,22.97
2018-06-29T05:23:00.420Z,22.97
2018-06-29T05:25:26.414Z,22.97
2018-06-29T05:27:52.401Z,22.97
2018-06-29T05:30:18.400Z,22.97
2018-06-29T05:32:44.380Z,22.99
2018-06-29T05:35:10.364Z,23.00
2018-06-29T05:37:36.344Z,22.99
2018-06-29T05:40:02.326Z,22.98
2018-06-29T05:42:28.305Z,22.99
2018-06-29T05:44:54.290Z,22.98
2018-06-29T05:47:20.269Z,22.98
2018-06-29T05:49:46.253Z,22.99
2018-06-29T05:52:12.245Z,22.99
2018-06-29T05:54:38.240Z,22.99
2018-06-29T05:57:04.220Z,22.99
2018-06-29T05:59:30.217Z,22.99
2018-06-29T06:01:56.255Z,22.99
2018-06-29T06:04:22.183Z,22.99
2018-06-29T06:06:48.178Z,22.99
2018-06-29T06:09:14.153Z,23.00
2018-06-29T06:11:40.134Z,23.00
2018-06-29T06:14:06.109Z,22.99
2018-06-29T06:16:32.116Z,22.99
2018-06-29T06:18:58.103Z,22.98
2018-06-29T06:21:24.084Z,22.98
2018-06-29T06:23:50.086Z,22.98
2018-06-29T06:26:16.065Z,22.98
2018-06-29T06:28:42.061Z,22.98
2018-06-29T06:31:08.045Z,22.98
2018-06-29T06:33:34.063Z,22.98
2018-06-29T06:36:00.014Z,22.98
2018-06-29T06:38:26.003Z,22.97
2018-06-29T06:40:51.987Z,22.98
2018-06-29T06:43:17.977Z,22.98
2018-06-29T06:45:43.958Z,22.97
2018-06-29T06:48:09.963Z,22.97
2018-06-29T06:50:35.910Z,22.97
2018-06-29T06:53:01.894Z,22.96
2018-06-29T06:55:27.876Z,22.97
2018-06-29T06:57:53.867Z,22.97
2018-06-29T07:00:19.885Z,22.96
2018-06-29T07:02:45.867Z,22.97
2018-06-29T07:05:11.853Z,22.97
2018-06-29T07:07:37.832Z,22.96
2018-06-29T07:10:03.809Z,22.96
2018-06-29T07:12:29.843Z,22.95
2018-06-29T07:14:55.781Z,22.95
2018-06-29T07:17:21.762Z,22.95
2018-06-29T07:19:47.747Z,22.94
2018-06-29T07:22:13.726Z,22.95
2018-06-29T07:24:39.719Z,22.95
2018-06-29T07:27:05.707Z,22.95
2018-06-29T07:29:31.727Z,22.95
2018-06-29T07:31:57.721Z,22.94
2018-06-29T07:34:23.711Z,22.95
2018-06-29T07:36:49.701Z,22.95
2018-06-29T07:39:15.681Z,22.95
2018-06-29T07:41:41.672Z,22.95
2018-06-29T07:44:07.650Z,22.96
2018-06-29T07:46:33.686Z,22.96
2018-06-29T07:48:59.618Z,22.98
2018-06-29T07:51:25.609Z,22.98
2018-06-29T07:53:51.581Z,22.99
2018-06-29T07:56:17.619Z,22.99
2018-06-29T07:58:43.634Z,22.98
2018-06-29T08:01:09.625Z,22.97
2018-06-29T08:03:35.666Z,22.97
2018-06-29T08:06:01.662Z,22.97
2018-06-29T08:08:27.692Z,22.96
2018-06-29T08:10:53.725Z,22.94
2018-06-29T08:13:19.722Z,22.95
2018-06-29T08:15:45.760Z,22.96
2018-06-29T08:18:11.787Z,22.96
2018-06-29T08:20:37.785Z,22.96
2018-06-29T08:23:03.777Z,22.95
2018-06-29T08:25:29.781Z,22.94
2018-06-29T08:27:55.807Z,22.94
2018-06-29T08:30:21.804Z,22.93
2018-06-29T08:32:47.848Z,22.95
2018-06-29T08:35:13.878Z,22.95
2018-06-29T08:37:39.915Z,22.95
2018-06-29T08:40:05.953Z,22.95
2018-06-29T08:42:31.986Z,22.95
2018-06-29T08:44:58.009Z,22.95
2018-06-29T08:47:23.981Z,22.94
2018-06-29T08:49:49.982Z,22.95
2018-06-29T08:52:16.095Z,22.95
2018-06-29T08:54:42.009Z,22.95
2018-06-29T08:57:08.006Z,22.95
2018-06-29T08:59:34.039Z,22.95
2018-06-29T09:02:00.045Z,22.95
2018-06-29T09:04:26.097Z,22.94
2018-06-29T09:06:52.121Z,22.94
2018-06-29T09:09:18.117Z,22.93
2018-06-29T09:11:44.153Z,22.92
2018-06-29T09:14:10.190Z,22.92
2018-06-29T09:16:36.193Z,22.91
2018-06-29T09:19:02.201Z,22.91
2018-06-29T09:21:28.227Z,22.90
2018-06-29T09:23:54.261Z,22.90
2018-06-29T09:26:20.266Z,22.89
2018-06-29T09:28:46.262Z,22.89
2018-06-29T09:31:12.294Z,22.88
2018-06-29T09:33:38.298Z,22.88
2018-06-29T09:36:04.330Z,22.88
2018-06-29T09:38:30.361Z,22.88
2018-06-29T09:40:56.398Z,22.87
2018-06-29T09:43:22.432Z,22.87
2018-06-29T09:45:48.429Z,22.86
2018-06-29T09:48:14.428Z,22.86
2018-06-29T09:50:40.467Z,22.86
2018-06-29T09:53:06.465Z,22.86
2018-06-29T09:55:32.542Z,22.85
2018-06-29T09:57:58.533Z,22.85
2018-06-29T10:00:24.590Z,22.84
2018-06-29T10:02:50.593Z,22.84
2018-06-29T10:05:16.594Z,22.84
2018-06-29T10:07:42.623Z,22.83
2018-06-29T10:10:11.310Z,22.82
2018-06-29T10:12:37.267Z,22.82
2018-06-29T10:15:03.259Z,22.82
2018-06-29T10:17:29.273Z,22.83
2018-06-29T10:19:55.362Z,22.83
2018-06-29T10:22:21.464Z,22.83
2018-06-29T10:24:47.323Z,22.83
2018-06-29T10:27:13.324Z,22.84
2018-06-29T10:29:39.329Z,22.83
2018-06-29T10:32:05.422Z,22.84
2018-06-29T10:34:31.443Z,22.83
2018-06-29T10:36:57.465Z,22.84
2018-06-29T10:39:23.468Z,22.85
2018-06-29T10:41:49.495Z,22.84
2018-06-29T10:44:15.490Z,22.84
2018-06-29T10:46:41.517Z,22.85
2018-06-29T10:49:07.573Z,22.85
2018-06-29T10:51:33.564Z,22.85
2018-06-29T10:53:59.576Z,22.85
2018-06-29T10:56:25.610Z,22.84
2018-06-29T10:58:51.651Z,22.84
2018-06-29T11:01:17.680Z,22.84
2018-06-29T11:03:43.681Z,22.84
2018-06-29T11:06:09.681Z,22.84
2018-06-29T11:08:35.696Z,22.84
2018-06-29T11:11:01.767Z,22.84
2018-06-29T11:13:27.680Z,22.85
2018-06-29T11:15:53.711Z,22.85
2018-06-29T11:18:19.741Z,22.84
2018-06-29T11:20:45.764Z,22.84
2018-06-29T11:23:11.782Z,22.84
2018-06-29T11:25:37.848Z,22.84
2018-06-29T11:28:03.880Z,22.85
2018-06-29T11:30:29.906Z,22.84
2018-06-29T11:32:55.933Z,22.85
2018-06-29T11:35:21.934Z,22.85
2018-06-29T11:37:47.968Z,22.84
2018-06-29T11:40:13.964Z,22.84
2018-06-29T11:42:39.974Z,22.85
2018-06-29T11:45:05.948Z,22.84
2018-06-29T11:47:31.977Z,22.85
2018-06-29T11:49:57.917Z,22.85
2018-06-29T11:52:23.901Z,22.84
2018-06-29T11:54:49.886Z,22.85
2018-06-29T11:57:15.963Z,22.85
2018-06-29T11:59:41.938Z,22.85
2018-06-29T12:02:07.929Z,22.85
2018-06-29T12:04:33.949Z,22.86
2018-06-29T12:06:59.928Z,22.87
2018-06-29T12:09:25.921Z,22.87
2018-06-29T12:11:51.914Z,22.88
2018-06-29T12:14:17.899Z,22.88
2018-06-29T12:16:43.881Z,22.89
2018-06-29T12:19:10.000Z,22.89
2018-06-29T12:21:36.258Z,22.91
2018-06-29T12:24:02.235Z,22.91
2018-06-29T12:26:28.219Z,22.93
2018-06-29T12:28:54.196Z,22.94
2018-06-29T12:31:20.262Z,22.94
2018-06-29T12:33:46.473Z,22.95
2018-06-29T12:36:12.523Z,22.95
2018-06-29T12:38:38.529Z,22.95
2018-06-29T12:41:04.522Z,22.96
2018-06-29T12:43:30.512Z,22.96
2018-06-29T12:45:56.489Z,22.99
2018-06-29T12:48:22.594Z,22.99
2018-06-29T12:50:48.586Z,22.99
2018-06-29T12:53:14.625Z,22.99
2018-06-29T12:55:40.603Z,23.00
2018-06-29T12:58:06.593Z,23.00
2018-06-29T13:00:32.605Z,22.98
2018-06-29T13:02:58.613Z,22.98
2018-06-29T13:05:24.687Z,22.96
2018-06-29T13:07:50.598Z,22.96
2018-06-29T13:10:16.582Z,22.95
2018-06-29T13:12:42.561Z,22.95
2018-06-29T13:15:08.555Z,22.94
2018-06-29T13:17:34.541Z,22.93
2018-06-29T13:20:00.530Z,22.94
2018-06-29T13:22:26.521Z,22.96
2018-06-29T13:24:52.571Z,22.97
2018-06-29T13:27:18.485Z,22.98
2018-06-29T13:29:44.474Z,22.98
2018-06-29T13:32:10.485Z,22.97
2018-06-29T13:34:36.465Z,22.96
2018-06-29T13:37:02.447Z,22.96
2018-06-29T13:39:28.485Z,22.96
2018-06-29T13:41:54.418Z,22.96
2018-06-29T13:44:20.404Z,22.97
2018-06-29T13:46:46.385Z,22.96
2018-06-29T13:49:12.401Z,22.97
2018-06-29T13:51:38.416Z,22.99
2018-06-29T13:54:04.405Z,22.98
2018-06-29T13:56:30.394Z,22.97
2018-06-29T13:58:56.394Z,22.98
2018-06-29T14:01:22.398Z,22.98
2018-06-29T14:03:48.427Z,22.98
2018-06-29T14:06:14.417Z,22.98
2018-06-29T14:08:40.395Z,22.97
2018-06-29T14:11:06.389Z,22.97
2018-06-29T14:13:32.446Z,22.97
2018-06-29T14:15:58.420Z,22.96
2018-06-29T14:18:24.401Z,22.96
2018-06-29T14:20:50.381Z,22.97
2018-06-29T14:23:16.365Z,22.97
2018-06-29T14:25:42.357Z,22.97
2018-06-29T14:28:08.345Z,22.95
2018-06-29T14:30:34.336Z,22.95
2018-06-29T14:33:00.330Z,22.96
2018-06-29T14:35:26.318Z,22.95
2018-06-29T14:37:52.303Z,22.95
2018-06-29T14:40:18.295Z,22.96
2018-06-29T14:42:44.305Z,22.96
2018-06-29T14:45:10.293Z,22.96
2018-06-29T14:47:36.303Z,22.96
2018-06-29T14:50:02.308Z,22.96
2018-06-29T14:52:28.310Z,22.95
2018-06-29T14:54:54.337Z,22.95
2018-06-29T14:57:20.399Z,22.94
2018-06-29T14:59:46.390Z,22.93
2018-06-29T15:02:12.374Z,22.93
2018-06-29T15:04:38.433Z,22.93
2018-06-29T15:07:04.403Z,22.94
2018-06-29T15:09:30.440Z,22.93
2018-06-29T15:11:56.421Z,22.93
2018-06-29T15:14:22.402Z,22.93
2018-06-29T15:16:48.380Z,22.93
2018-06-29T15:19:14.364Z,22.94
2018-06-29T15:21:40.389Z,22.95
2018-06-29T15:24:06.335Z,22.94
2018-06-29T15:26:32.364Z,22.95
2018-06-29T15:28:58.329Z,22.96
2018-06-29T15:31:24.359Z,22.96
2018-06-29T15:33:50.310Z,22.96
2018-06-29T15:36:16.308Z,22.97
2018-06-29T15:38:42.295Z,22.96
2018-06-29T15:41:08.284Z,22.97
2018-06-29T15:43:34.280Z,22.97
2018-06-29T15:46:00.357Z,22.98
2018-06-29T15:48:26.337Z,22.98
2018-06-29T15:50:52.324Z,22.98
2018-06-29T15:53:18.311Z,22.97
2018-06-29T15:55:44.302Z,22.98
2018-06-29T15:58:10.282Z,22.97
2018-06-29T16:00:36.317Z,22.98
2018-06-29T16:03:02.258Z,22.98
2018-06-29T16:05:28.248Z,22.98
2018-06-29T16:08:06.911Z,22.98
2018-06-29T16:10:35.888Z,22.97
2018-06-29T16:13:01.881Z,22.98
2018-06-29T16:15:33.038Z,22.98
2018-06-29T16:17:59.510Z,22.99
2018-06-29T16:20:25.943Z,22.98
2018-06-29T16:22:52.221Z,22.98
2018-06-29T16:25:18.206Z,22.98
2018-06-29T16:27:44.239Z,22.98
2018-06-29T16:30:10.260Z,22.98
2018-06-29T16:32:36.338Z,22.98
2018-06-29T16:35:02.335Z,22.98
2018-06-29T16:37:28.668Z,22.98
2018-06-29T16:39:54.569Z,22.98
2018-06-29T16:42:20.626Z,22.98
2018-06-29T16:44:46.654Z,22.97
2018-06-29T16:47:12.596Z,22.98
2018-06-29T16:49:38.615Z,22.98
2018-06-29T16:52:04.605Z,22.98
2018-06-29T16:54:30.981Z,22.99
2018-06-29T16:56:57.024Z,22.98
2018-06-29T16:59:23.000Z,22.98
2018-06-29T17:01:49.132Z,22.97
2018-06-29T17:04:15.112Z,22.98
2018-06-29T17:06:41.136Z,22.97
2018-06-29T17:09:07.110Z,22.97
2018-06-29T17:11:33.091Z,22.97
2018-06-29T17:13:59.075Z,22.97
2018-06-29T17:16:25.288Z,22.98
2018-06-29T17:18:51.308Z,22.97
2018-06-29T17:21:17.455Z,22.97
2018-06-29T17:23:43.560Z,22.97
2018-06-29T17:26:09.583Z,22.96
2018-06-29T17:28:35.565Z,22.96
2018-06-29T17:31:01.612Z,22.95
2018-06-29T17:33:32.053Z,22.94
2018-06-29T17:35:53.744Z,22.94
2018-06-29T17:38:19.799Z,22.94
2018-06-29T17:40:45.842Z,22.93
2018-06-29T17:43:11.781Z,22.93
2018-06-29T17:45:37.759Z,22.92
2018-06-29T17:48:03.762Z,22.92
2018-06-29T17:50:29.744Z,22.92
2018-06-29T17:52:55.758Z,22.92
2018-06-29T17:55:24.879Z,22.92
2018-06-29T17:57:50.809Z,22.91
2018-06-29T18:00:16.801Z,22.91
2018-06-29T18:02:42.794Z,22.93
2018-06-29T18:05:08.817Z,22.92
2018-06-29T18:07:34.805Z,22.94
2018-06-29T18:10:00.831Z,22.93
2018-06-29T18:12:26.810Z,22.91
2018-06-29T18:14:52.791Z,22.92
2018-06-29T18:17:18.807Z,22.92
2018-06-29T18:19:44.820Z,22.94
2018-06-29T18:22:10.898Z,22.93
2018-06-29T18:24:36.877Z,22.93
2018-06-29T18:27:02.869Z,22.93
2018-06-29T18:29:28.846Z,22.92
2018-06-29T18:31:54.825Z,22.92
2018-06-29T18:34:20.807Z,22.93
2018-06-29T18:36:46.897Z,22.93
2018-06-29T18:39:12.839Z,22.92
2018-06-29T18:41:38.888Z,22.92
2018-06-29T18:44:04.939Z,22.94
2018-06-29T18:46:30.960Z,22.94
2018-06-29T18:48:57.190Z,22.95
2018-06-29T18:51:23.143Z,22.95
2018-06-29T18:53:49.331Z,22.97
2018-06-29T18:56:15.313Z,22.97
2018-06-29T18:58:41.328Z,22.96
2018-06-29T19:01:07.441Z,22.97
2018-06-29T19:03:33.425Z,22.96
2018-06-29T19:05:59.442Z,22.96
2018-06-29T19:08:25.452Z,22.95
2018-06-29T19:10:51.509Z,22.96
2018-06-29T19:13:17.750Z,22.96
2018-06-29T19:15:43.838Z,22.96
2018-06-29T19:18:09.878Z,22.97
2018-06-29T19:20:35.888Z,22.96
2018-06-29T19:23:02.032Z,22.97
2018-06-29T19:25:28.076Z,22.97
2018-06-29T19:27:54.086Z,22.97
2018-06-29T19:30:20.085Z,22.98
2018-06-29T19:32:46.394Z,22.98
2018-06-29T19:35:12.341Z,22.98
2018-06-29T19:37:38.325Z,22.99
2018-06-29T19:40:04.349Z,22.99
2018-06-29T19:42:30.319Z,23.00
2018-06-29T19:44:56.314Z,23.02
2018-06-29T19:47:22.298Z,23.01
2018-06-29T19:49:48.336Z,23.01
2018-06-29T19:52:14.324Z,23.01
2018-06-29T19:54:40.303Z,23.02
2018-06-29T19:57:06.375Z,23.02
2018-06-29T19:59:32.667Z,23.02
2018-06-29T20:01:58.654Z,23.03
2018-06-29T20:04:24.764Z,23.02
2018-06-29T20:06:50.802Z,23.03
2018-06-29T20:09:16.779Z,23.03
2018-06-29T20:11:42.805Z,23.03
2018-06-29T20:14:08.799Z,23.04
2018-06-29T20:16:34.782Z,23.04
2018-06-29T20:19:00.767Z,23.04
2018-06-29T20:21:26.754Z,23.04
2018-06-29T20:23:52.745Z,23.04
2018-06-29T20:26:18.742Z,23.05
2018-06-29T20:28:44.723Z,23.04
2018-06-29T20:31:10.713Z,23.04
2018-06-29T20:33:36.691Z,23.04
2018-06-29T20:36:02.684Z,23.04
2018-06-29T20:38:28.760Z,23.03
2018-06-29T20:40:54.720Z,23.03
2018-06-29T20:43:20.702Z,23.03
2018-06-29T20:45:46.699Z,23.03
2018-06-29T20:48:12.692Z,23.03
2018-06-29T20:50:38.666Z,23.03
2018-06-29T20:53:04.697Z,23.03
2018-06-29T20:55:30.683Z,23.02
2018-06-29T20:57:56.660Z,23.02
2018-06-29T21:00:22.638Z,23.02
2018-06-29T21:02:48.658Z,23.02
2018-06-29T21:05:14.836Z,23.02
2018-06-29T21:07:40.906Z,23.02
2018-06-29T21:10:06.893Z,23.02
2018-06-29T21:12:32.882Z,23.02
2018-06-29T21:14:58.865Z,23.02
2018-06-29T21:17:24.879Z,23.02
2018-06-29T21:19:51.017Z,23.02
2018-06-29T21:22:17.002Z,23.02
2018-06-29T21:24:42.996Z,23.01
2018-06-29T21:27:08.976Z,23.01
2018-06-29T21:29:34.959Z,23.01
2018-06-29T21:32:00.942Z,23.00
2018-06-29T21:34:26.925Z,23.00
2018-06-29T21:36:53.567Z,23.00
2018-06-29T21:39:19.551Z,23.00
2018-06-29T21:41:45.546Z,23.00
2018-06-29T21:44:11.675Z,23.00
2018-06-29T21:46:37.668Z,23.00
2018-06-29T21:49:03.667Z,23.00
2018-06-29T21:51:29.651Z,22.99
2018-06-29T21:53:55.635Z,22.99
2018-06-29T21:56:21.613Z,22.97
2018-06-29T21:58:47.598Z,22.97
2018-06-29T22:01:13.578Z,22.96
2018-06-29T22:03:39.571Z,22.94
2018-06-29T22:06:05.566Z,22.94
2018-06-29T22:08:31.533Z,22.92
2018-06-29T22:10:57.517Z,22.92
2018-06-29T22:13:23.496Z,22.91
2018-06-29T22:15:49.486Z,22.91
2018-06-29T22:18:15.479Z,22.90
2018-06-29T22:20:41.458Z,22.89
2018-06-29T22:23:07.448Z,22.89
2018-06-29T22:25:33.440Z,22.88
2018-06-29T22:27:59.534Z,22.88
2018-06-29T22:30:25.399Z,22.87
2018-06-29T22:32:51.384Z,22.86
2018-06-29T22:35:17.372Z,22.86
2018-06-29T22:37:43.353Z,22.85
2018-06-29T22:40:09.340Z,22.85
2018-06-29T22:42:35.323Z,22.85
2018-06-29T22:45:01.298Z,22.84
2018-06-29T22:47:27.280Z,22.84
2018-06-29T22:49:53.254Z,22.83
2018-06-29T22:52:19.246Z,22.83
2018-06-29T22:54:45.229Z,22.82
2018-06-29T22:57:11.317Z,22.82
2018-06-29T22:59:37.297Z,22.81
2018-06-29T23:02:03.274Z,22.81
2018-06-29T23:04:29.258Z,22.80
2018-06-29T23:06:55.264Z,22.79
2018-06-29T23:09:21.244Z,22.79
2018-06-29T23:11:47.235Z,22.79
2018-06-29T23:14:13.214Z,22.78
2018-06-29T23:16:39.199Z,22.79
2018-06-29T23:19:05.186Z,22.78
2018-06-29T23:21:31.158Z,22.76
2018-06-29T23:23:57.141Z,22.75
2018-06-29T23:26:23.129Z,22.76
2018-06-29T23:28:49.118Z,22.75
2018-06-29T23:31:15.110Z,22.75
2018-06-29T23:33:41.094Z,22.74
2018-06-29T23:36:07.086Z,22.74
2018-06-29T23:38:33.090Z,22.74
2018-06-29T23:40:59.078Z,22.73
2018-06-29T23:43:25.059Z,22.74
2018-06-29T23:45:51.041Z,22.73
2018-06-29T23:48:17.020Z,22.73
2018-06-29T23:50:43.093Z,22.73
2018-06-29T23:53:09.072Z,22.72
2018-06-29T23:55:35.058Z,22.72
2018-06-29T23:58:01.034Z,22.72
